Time,TemperatureF,DewpointF,PressureIn,WindDirection,WindDirectionDegrees,WindSpeedMPH,WindSpeedGustMPH,Humidity,HourlyPrecipIn,Conditions,Clouds,dailyrainin,SoftwareType,DateUTC
2013-03-17 00:00:00,36.3,32.2,29.32,NE,45,0.0,0.0,85,0.00,RA,FEW,0.00,WeatherDisplay:10.37,2013-03-17 00:00:00,
2013-03-17 00:30:00,36.0,31.9,29.32,NE,45,0.0,0.0,85,0.00,CLR,FEW,0.00,WeatherDisplay:10.37,2013-03-17 00:30:00,
2013-03-17 01:00:00,35.6,31.8,29.31,NE,45,0.0,0.0,86,0.00,CLR,FEW,0.00,WeatherDisplay:10.37,2013-03-17 01:00:00,
2013-03-17 01:30:00,35.7,32.0,29.31,NE,45,0.0,0.0,86,0.00,CLR,FEW,0.00,WeatherDisplay:10.37,2013-03-17 01:30:00,
2013-03-17 02:00:00,35.7,32.2,29.30,NE,45,0.0,1.0,87,0.00,CLR,FEW,0.00,WeatherDisplay:10.37,2013-03-17 02:00:00,
2013-03-17 02:30:00,35.4,31.9,29.29,NE,45,0.0,0.0,87,0.00,CLR,FEW,0.00,WeatherDisplay:10.37,2013-03-17 02:30:00,
2013-03-17 03:00:00,35.4,32.2,29.28,NE,45,0.0,0.0,88,0.00,CLR,FEW,0.00,WeatherDisplay:10.37,2013-03-17 03:00:00,
2013-03-17 03:30:00,35.4,32.5,29.27,NE,45,0.0,2.0,89,0.00,CLR,FEW,0.00,WeatherDisplay:10.37,2013-03-17 03:30:00,
2013-03-17 04:00:00,35.2,32.3,29.26,NE,45,0.0,0.0,89,0.00,CLR,FEW,0.00,WeatherDisplay:10.37,2013-03-17 04:00:00,
2013-03-17 04:30:00,34.9,32.2,29.26,NE,45,0.0,5.0,90,0.00,CLR,FEW,0.00,WeatherDisplay:10.37,2013-03-17 04:30:00,
2013-03-17 05:00:00,34.9,32.5,29.25,NE,45,0.0,2.0,91,0.00,CLR,FEW,0.00,WeatherDisplay:10.37,2013-03-17 05:00:00,
2013-03-17 05:30:00,34.9,32.5,29.25,NE,45,0.0,6.0,91,0.00,CLR,FEW,0.00,WeatherDisplay:10.37,2013-03-17 05:30:00,
2013-03-17 06:00:00,35.2,33.1,29.24,NE,45,0.0,4.0,92,0.00,CLR,FEW,0.00,WeatherDisplay:10.37,2013-03-17 06:00:00,
2013-03-17 06:30:00,35.5,33.6,29.24,NE,45,0.0,4.0,93,0.00,CLR,FEW,0.00,WeatherDisplay:10.37,2013-03-17 06:30:00,
2013-03-17 07:00:00,35.4,33.6,29.23,NE,45,0.0,6.0,93,0.00,CLR,FEW,0.00,WeatherDisplay:10.37,2013-03-17 07:00:00,
2013-03-17 07:30:00,35.8,34.0,29.23,NE,45,0.0,3.0,93,0.00,CLR,FEW,0.00,WeatherDisplay:10.37,2013-03-17 07:30:00,
2013-03-17 08:00:00,36.1,34.3,29.22,NE,45,0.0,2.0,93,0.00,CLR,FEW,0.00,WeatherDisplay:10.37,2013-03-17 08:00:00,
2013-03-17 08:30:00,36.5,34.9,29.22,NE,45,0.0,0.0,94,0.01,RA,FEW,0.01,WeatherDisplay:10.37,2013-03-17 08:30:00,
2013-03-17 09:00:00,36.5,34.9,29.21,NE,45,0.0,6.0,94,0.01,CLR,FEW,0.02,WeatherDisplay:10.37,2013-03-17 09:00:00,
2013-03-17 09:30:00,35.8,34.5,29.20,NE,45,0.0,2.0,95,0.02,RA,FEW,0.05,WeatherDisplay:10.37,2013-03-17 09:30:00,
2013-03-17 10:00:00,36.3,35.6,29.19,NE,45,0.0,5.0,97,0.00,CLR,FEW,0.05,WeatherDisplay:10.37,2013-03-17 10:00:00,
2013-03-17 10:30:00,36.7,36.4,29.19,NE,45,0.0,5.0,99,0.00,,FEW,0.05,WeatherDisplay:10.37,2013-03-17 10:30:00,
2013-03-17 11:00:00,37.4,37.1,29.18,NE,45,0.0,5.0,99,0.00,,FEW,0.05,WeatherDisplay:10.37,2013-03-17 11:00:00,
2013-03-17 11:30:00,38.1,37.9,29.18,NE,45,0.0,6.0,99,0.00,,FEW,0.05,WeatherDisplay:10.37,2013-03-17 11:30:00,
2013-03-17 12:00:00,38.8,38.6,29.18,NE,45,0.0,3.0,99,0.00,,FEW,0.05,WeatherDisplay:10.37,2013-03-17 12:00:00,
2013-03-17 12:30:00,39.4,39.1,29.17,NE,45,0.0,2.0,99,0.00,,FEW,0.05,WeatherDisplay:10.37,2013-03-17 12:30:00,
2013-03-17 13:00:00,40.0,39.7,29.16,NE,45,0.0,1.0,99,0.00,,FEW,0.05,WeatherDisplay:10.37,2013-03-17 13:00:00,
2013-03-17 13:29:00,40.6,40.4,29.16,NE,45,0.0,0.0,99,0.00,,FEW,0.05,WeatherDisplay:10.37,2013-03-17 13:29:00,
2013-03-17 14:00:00,41.4,41.1,29.15,NE,45,0.0,0.0,99,0.00,,FEW,0.05,WeatherDisplay:10.37,2013-03-17 14:00:00,
2013-03-17 14:30:00,42.1,41.8,29.15,NE,45,0.0,2.0,99,0.00,,FEW,0.05,WeatherDisplay:10.37,2013-03-17 14:30:00,
2013-03-17 15:00:00,41.2,40.9,29.15,NE,45,0.0,2.0,99,0.00,,FEW,0.05,WeatherDisplay:10.37,2013-03-17 15:00:00,
2013-03-17 15:29:00,41.2,41.0,29.15,NE,45,0.0,2.0,99,0.00,,FEW,0.05,WeatherDisplay:10.37,2013-03-17 15:29:00,
2013-03-17 16:00:00,41.0,40.7,29.15,NE,45,0.0,0.0,99,0.00,,FEW,0.05,WeatherDisplay:10.37,2013-03-17 16:00:00,
2013-03-17 16:30:00,40.8,40.6,29.15,NE,45,0.0,0.0,99,0.00,,FEW,0.05,WeatherDisplay:10.37,2013-03-17 16:30:00,
2013-03-17 17:00:00,40.3,40.0,29.16,NE,45,0.0,4.0,99,0.00,,FEW,0.05,WeatherDisplay:10.37,2013-03-17 17:00:00,
2013-03-17 17:29:00,39.9,39.7,29.16,NE,45,0.0,0.0,99,0.00,,FEW,0.05,WeatherDisplay:10.37,2013-03-17 17:29:00,
2013-03-17 18:00:00,39.4,39.1,29.16,NE,45,0.0,0.0,99,0.00,,FEW,0.05,WeatherDisplay:10.37,2013-03-17 18:00:00,
2013-03-17 18:29:00,39.0,38.0,29.17,NE,45,0.0,0.0,96,0.00,,FEW,0.05,WeatherDisplay:10.37,2013-03-17 18:29:00,
2013-03-17 19:00:00,38.8,37.8,29.18,NE,45,0.0,0.0,96,0.00,,FEW,0.05,WeatherDisplay:10.37,2013-03-17 19:00:00,
2013-03-17 19:29:00,38.8,37.5,29.18,NE,45,0.0,0.0,95,0.00,,FEW,0.05,WeatherDisplay:10.37,2013-03-17 19:29:00,
2013-03-17 20:00:00,38.3,36.7,29.18,NE,45,0.0,0.0,94,0.00,,FEW,0.05,WeatherDisplay:10.37,2013-03-17 20:00:00,
2013-03-17 20:29:00,38.3,36.7,29.18,NE,45,0.0,0.0,94,0.00,,FEW,0.05,WeatherDisplay:10.37,2013-03-17 20:29:00,
2013-03-17 21:00:00,37.9,36.4,29.18,NE,45,0.0,0.0,94,0.00,,FEW,0.05,WeatherDisplay:10.37,2013-03-17 21:00:00,
2013-03-17 21:29:00,37.9,36.4,29.19,NE,45,0.0,0.0,94,0.00,,FEW,0.05,WeatherDisplay:10.37,2013-03-17 21:29:00,
2013-03-17 22:00:00,37.2,35.7,29.19,NE,45,0.0,0.0,94,0.00,,FEW,0.05,WeatherDisplay:10.37,2013-03-17 22:00:00,
2013-03-17 22:29:00,37.0,35.7,29.19,NE,45,0.0,0.0,95,0.00,,FEW,0.05,WeatherDisplay:10.37,2013-03-17 22:29:00,
2013-03-17 23:00:00,37.4,36.4,29.19,NE,45,0.0,2.0,96,0.00,,FEW,0.05,WeatherDisplay:10.37,2013-03-17 23:00:00,
2013-03-17 23:29:00,37.0,36.0,29.19,NE,45,0.0,2.0,96,0.00,,FEW,0.05,WeatherDisplay:10.37,2013-03-17 23:29:00,